createdAt,value
2018-11-14T00:01:12.734Z,17.97
2018-11-14T00:03:42.663Z,17.77
2018-11-14T00:06:12.769Z,18.97
2018-11-14T00:08:41.971Z,19.07
2018-11-14T00:11:12.605Z,20.27
2018-11-14T00:13:42.319Z,19.27
2018-11-14T00:16:12.385Z,19.33
2018-11-14T00:18:42.552Z,18.07
2018-11-14T00:21:12.676Z,19.20
2018-11-14T00:23:42.295Z,18.73
2018-11-14T00:26:13.746Z,19.10
2018-11-14T00:28:44.187Z,21.03
2018-11-14T00:31:15.226Z,18.93
2018-11-14T00:33:45.260Z,19.50
2018-11-14T00:36:15.369Z,19.40
2018-11-14T00:38:45.392Z,20.83
2018-11-14T00:41:15.005Z,20.83
2018-11-14T00:43:45.022Z,20.83
2018-11-14T00:46:14.738Z,20.87
2018-11-14T00:48:44.766Z,20.23
2018-11-14T00:51:15.013Z,19.70
2018-11-14T00:53:45.107Z,19.70
2018-11-14T00:56:14.923Z,20.77
2018-11-14T00:58:45.765Z,21.07
2018-11-14T01:01:15.174Z,20.23
2018-11-14T01:03:44.886Z,20.77
2018-11-14T01:06:14.392Z,20.13
2018-11-14T01:08:43.976Z,21.43
2018-11-14T01:11:14.246Z,21.20
2018-11-14T01:13:44.257Z,19.30
2018-11-14T01:16:14.172Z,20.93
2018-11-14T01:18:43.791Z,20.73
2018-11-14T01:21:13.702Z,20.27
2018-11-14T01:23:43.420Z,20.37
2018-11-14T01:26:13.435Z,20.43
2018-11-14T01:28:42.612Z,21.73
2018-11-14T01:31:12.966Z,21.30
2018-11-14T01:33:43.483Z,21.17
2018-11-14T01:36:13.547Z,20.93
2018-11-14T01:38:43.652Z,21.23
2018-11-14T01:41:13.556Z,21.43
2018-11-14T01:43:43.477Z,21.63
2018-11-14T01:46:12.990Z,21.53
2018-11-14T01:48:42.857Z,21.80
2018-11-14T01:51:12.314Z,20.90
2018-11-14T01:53:41.927Z,20.90
2018-11-14T01:56:11.947Z,21.43
2018-11-14T01:58:42.379Z,21.53
2018-11-14T02:01:11.988Z,22.10
2018-11-14T02:03:42.010Z,21.30
2018-11-14T02:06:11.623Z,21.00
2018-11-14T02:08:41.644Z,22.00
2018-11-14T02:11:11.457Z,21.57
2018-11-14T02:13:41.687Z,21.37
2018-11-14T02:16:11.713Z,20.63
2018-11-14T02:18:41.734Z,21.93
2018-11-14T02:21:12.046Z,20.20
2018-11-14T02:23:41.775Z,21.13
2018-11-14T02:26:11.184Z,21.27
2018-11-14T02:28:40.590Z,21.70
2018-11-14T02:31:11.113Z,22.17
2018-11-14T02:33:41.144Z,21.30
2018-11-14T02:36:10.651Z,22.20
2018-11-14T02:38:40.673Z,22.53
2018-11-14T02:41:10.468Z,22.30
2018-11-14T02:43:40.202Z,21.80
2018-11-14T02:46:09.814Z,21.23
2018-11-14T02:48:39.537Z,21.37
2018-11-14T02:51:20.815Z,20.47
2018-11-14T02:53:50.935Z,22.03
2018-11-14T02:56:20.957Z,20.27
2018-11-14T02:58:50.156Z,21.43
2018-11-14T03:01:19.733Z,21.53
2018-11-14T03:03:49.890Z,22.23
2018-11-14T03:06:20.079Z,20.90
2018-11-14T03:08:49.933Z,21.60
2018-11-14T03:11:20.211Z,20.63
2018-11-14T03:13:50.015Z,21.57
2018-11-14T03:16:20.099Z,20.73
2018-11-14T03:18:49.593Z,20.47
2018-11-14T03:21:19.214Z,21.50
2018-11-14T03:23:48.831Z,22.80
2018-11-14T03:26:18.949Z,23.30
2018-11-14T03:28:48.889Z,22.87
2018-11-14T03:31:20.017Z,23.80
2018-11-14T03:33:50.036Z,21.27
2018-11-14T03:36:21.601Z,21.33
2018-11-14T03:38:51.809Z,21.30
2018-11-14T03:41:22.043Z,21.43
2018-11-14T03:43:52.215Z,21.93
2018-11-14T03:46:21.978Z,20.70
2018-11-14T03:48:52.204Z,20.33
2018-11-14T03:51:21.881Z,21.13
2018-11-14T03:53:51.527Z,20.77
2018-11-14T03:56:20.747Z,20.87
2018-11-14T03:58:51.015Z,21.93
2018-11-14T04:01:20.769Z,21.80
2018-11-14T04:03:50.893Z,21.13
2018-11-14T04:06:20.299Z,21.00
2018-11-14T04:08:49.805Z,20.97
2018-11-14T04:11:19.316Z,21.07
2018-11-14T04:13:49.107Z,21.07
2018-11-14T04:16:18.774Z,21.57
2018-11-14T04:18:48.719Z,21.13
2018-11-14T04:21:18.891Z,21.00
2018-11-14T04:23:50.546Z,20.97
2018-11-14T04:26:20.472Z,20.27
2018-11-14T04:28:50.795Z,20.57
2018-11-14T04:31:20.710Z,20.00
2018-11-14T04:33:50.221Z,21.43
2018-11-14T04:36:20.727Z,20.40
2018-11-14T04:38:50.777Z,20.47
2018-11-14T04:41:21.194Z,20.00
2018-11-14T04:43:51.231Z,19.87
2018-11-14T04:46:20.917Z,21.43
2018-11-14T04:48:50.956Z,22.10
2018-11-14T04:51:21.909Z,20.47
2018-11-14T04:53:51.243Z,21.20
2018-11-14T04:56:20.822Z,19.67
2018-11-14T04:58:50.949Z,19.87
2018-11-14T05:01:21.585Z,20.20
2018-11-14T05:03:51.198Z,19.67
2018-11-14T05:06:21.592Z,20.47
2018-11-14T05:08:51.237Z,19.57
2018-11-14T05:11:21.327Z,19.63
2018-11-14T05:13:50.807Z,20.10
2018-11-14T05:16:20.891Z,19.53
2018-11-14T05:18:51.118Z,18.73
2018-11-14T05:21:20.975Z,19.57
2018-11-14T05:23:50.953Z,19.10
2018-11-14T05:26:20.903Z,19.57
2018-11-14T05:28:50.695Z,19.23
2018-11-14T05:31:20.452Z,18.97
2018-11-14T05:33:50.124Z,19.47
2018-11-14T05:36:19.925Z,18.83
2018-11-14T05:38:49.857Z,18.70
2018-11-14T05:41:19.366Z,19.47
2018-11-14T05:43:48.772Z,18.70
2018-11-14T05:46:19.077Z,19.73
2018-11-14T05:48:48.716Z,20.10
2018-11-14T05:51:20.385Z,18.93
2018-11-14T05:53:50.129Z,18.97
2018-11-14T05:56:19.465Z,19.10
2018-11-14T05:58:49.117Z,18.63
2018-11-14T06:01:19.339Z,18.90
2018-11-14T06:03:48.690Z,19.07
2018-11-14T06:06:18.771Z,19.87
2018-11-14T06:08:47.969Z,18.50
2018-11-14T06:11:17.281Z,18.83
2018-11-14T06:13:46.985Z,19.17
2018-11-14T06:16:16.493Z,19.30
2018-11-14T06:18:46.312Z,18.37
2018-11-14T06:21:15.635Z,19.40
2018-11-14T06:23:45.654Z,18.77
2018-11-14T06:26:15.357Z,19.63
2018-11-14T06:28:45.271Z,18.50
2018-11-14T06:31:14.779Z,18.83
2018-11-14T06:33:44.456Z,18.77
2018-11-14T06:36:14.004Z,18.27
2018-11-14T06:38:43.925Z,19.07
2018-11-14T06:41:13.538Z,17.47
2018-11-14T06:43:42.944Z,18.57
2018-11-14T06:46:12.512Z,18.10
2018-11-14T06:48:41.927Z,17.90
2018-11-14T06:51:11.918Z,17.80
2018-11-14T06:53:41.599Z,18.97
2018-11-14T06:56:11.721Z,18.70
2018-11-14T06:58:41.314Z,17.70
2018-11-14T07:01:11.461Z,17.80
2018-11-14T07:03:40.868Z,18.00
2018-11-14T07:06:10.473Z,18.03
2018-11-14T07:08:40.984Z,18.60
2018-11-14T07:11:10.458Z,19.13
2018-11-14T07:13:39.930Z,18.17
2018-11-14T07:16:09.954Z,18.83
2018-11-14T07:18:39.667Z,19.87
2018-11-14T07:21:09.456Z,17.33
2018-11-14T07:23:39.025Z,19.57
2018-11-14T07:26:08.442Z,18.63
2018-11-14T07:28:38.019Z,19.70
2018-11-14T07:31:07.627Z,19.27
2018-11-14T07:33:37.171Z,19.47
2018-11-14T07:36:06.889Z,20.43
2018-11-14T07:38:39.436Z,20.37
2018-11-14T07:41:10.786Z,20.33
2018-11-14T07:43:40.945Z,19.67
2018-11-14T07:46:11.247Z,19.60
2018-11-14T07:48:41.052Z,21.57
2018-11-14T07:51:10.669Z,20.53
2018-11-14T07:53:40.020Z,20.50
2018-11-14T07:56:09.589Z,20.70
2018-11-14T07:58:38.996Z,18.80
2018-11-14T08:01:08.816Z,18.27
2018-11-14T08:03:39.037Z,18.43
2018-11-14T08:06:08.755Z,18.97
2018-11-14T08:08:38.941Z,17.30
2018-11-14T08:11:10.173Z,18.87
2018-11-14T08:13:41.071Z,20.57
2018-11-14T08:16:10.680Z,19.90
2018-11-14T08:18:40.303Z,19.60
2018-11-14T08:21:09.909Z,18.83
2018-11-14T08:23:40.243Z,16.63
2018-11-14T08:26:10.464Z,17.43
2018-11-14T08:28:39.976Z,16.87
2018-11-14T08:31:09.383Z,16.43
2018-11-14T08:33:39.099Z,15.50
2018-11-14T08:36:09.006Z,15.80
2018-11-14T08:38:38.526Z,15.57
2018-11-14T08:41:08.001Z,15.53
2018-11-14T08:43:37.760Z,15.17
2018-11-14T08:46:07.776Z,14.87
2018-11-14T08:48:37.488Z,14.50
2018-11-14T08:51:07.885Z,14.27
2018-11-14T08:53:37.531Z,14.83
2018-11-14T08:56:07.248Z,14.67
2018-11-14T08:58:36.646Z,14.33
2018-11-14T09:01:06.164Z,14.47
2018-11-14T09:03:35.643Z,14.03
2018-11-14T09:06:06.476Z,13.67
2018-11-14T09:08:36.025Z,12.50
2018-11-14T09:11:06.628Z,13.87
2018-11-14T09:13:36.377Z,13.17
2018-11-14T09:16:06.196Z,13.27
2018-11-14T09:18:35.728Z,13.10
2018-11-14T09:21:06.857Z,12.20
2018-11-14T09:23:36.462Z,13.30
2018-11-14T09:26:06.384Z,12.33
2018-11-14T09:28:35.778Z,12.33
2018-11-14T09:31:06.564Z,11.87
2018-11-14T09:33:36.037Z,12.47
2018-11-14T09:36:06.064Z,11.50
2018-11-14T09:38:35.856Z,12.47
2018-11-14T09:41:06.616Z,12.07
2018-11-14T09:43:36.128Z,11.97
2018-11-14T09:46:08.403Z,12.13
2018-11-14T09:48:38.305Z,11.00
2018-11-14T09:51:07.731Z,11.07
2018-11-14T09:53:37.441Z,11.20
2018-11-14T09:56:07.157Z,11.07
2018-11-14T09:58:36.718Z,10.87
2018-11-14T10:01:08.330Z,10.63
2018-11-14T10:03:37.763Z,11.60
2018-11-14T10:06:07.283Z,12.07
2018-11-14T10:08:37.165Z,11.17
2018-11-14T10:11:07.288Z,11.07
2018-11-14T10:13:36.900Z,10.53
2018-11-14T10:16:06.604Z,10.63
2018-11-14T10:18:36.600Z,10.00
2018-11-14T10:21:07.231Z,10.03
2018-11-14T10:23:37.607Z,9.73
2018-11-14T10:26:08.652Z,10.57
2018-11-14T10:28:38.671Z,10.63
2018-11-14T10:31:08.561Z,10.33
2018-11-14T10:33:38.610Z,8.97
2018-11-14T10:36:08.687Z,9.27
2018-11-14T10:38:40.092Z,9.07
2018-11-14T10:41:10.322Z,9.40
2018-11-14T10:43:40.134Z,8.53
2018-11-14T10:46:10.168Z,9.50
2018-11-14T10:48:39.976Z,9.00
2018-11-14T10:51:10.023Z,9.10
2018-11-14T10:53:39.718Z,8.40
2018-11-14T10:56:09.531Z,8.37
2018-11-14T10:58:39.857Z,8.43
2018-11-14T11:01:15.000Z,8.43
2018-11-14T11:03:49.498Z,8.83
2018-11-14T11:06:35.015Z,8.57
2018-11-14T11:09:14.469Z,8.53
2018-11-14T11:11:49.377Z,7.97
2018-11-14T11:14:42.028Z,7.53
2018-11-14T11:17:16.350Z,8.13
2018-11-14T11:19:46.286Z,8.13
2018-11-14T11:22:16.308Z,8.20
2018-11-14T11:24:46.590Z,8.07
2018-11-14T11:27:16.391Z,8.33
2018-11-14T11:29:45.898Z,8.00
2018-11-14T11:32:16.291Z,7.53
2018-11-14T11:34:46.007Z,6.87
2018-11-14T11:37:15.894Z,7.07
2018-11-14T11:39:45.435Z,8.00
2018-11-14T11:42:15.201Z,7.97
2018-11-14T11:44:45.277Z,7.60
2018-11-14T11:47:14.687Z,7.73
2018-11-14T11:49:44.298Z,7.90
2018-11-14T11:52:14.117Z,7.60
2018-11-14T11:54:43.513Z,7.40
2018-11-14T11:57:13.133Z,7.03
2018-11-14T11:59:42.976Z,6.97
2018-11-14T12:02:12.842Z,7.23
2018-11-14T12:04:42.686Z,7.40
2018-11-14T12:07:11.991Z,7.10
2018-11-14T12:09:48.975Z,7.07
2018-11-14T12:12:19.099Z,7.70
2018-11-14T12:14:49.123Z,7.03
2018-11-14T12:17:18.836Z,7.80
2018-11-14T12:19:48.760Z,7.90
2018-11-14T12:22:19.085Z,7.77
2018-11-14T12:24:48.697Z,7.83
2018-11-14T12:27:18.325Z,7.37
2018-11-14T12:29:47.900Z,7.43
2018-11-14T12:32:18.462Z,7.50
2018-11-14T12:34:48.268Z,7.70
2018-11-14T12:37:18.146Z,8.43
2018-11-14T12:39:47.700Z,8.33
2018-11-14T12:42:17.317Z,8.47
2018-11-14T12:44:47.183Z,8.53
2018-11-14T12:47:16.642Z,9.20
2018-11-14T12:49:46.067Z,7.93
2018-11-14T12:52:15.766Z,8.20
2018-11-14T12:54:45.888Z,8.33
2018-11-14T12:57:15.536Z,9.17
2018-11-14T12:59:45.648Z,8.03
2018-11-14T13:02:15.751Z,7.83
2018-11-14T13:04:45.670Z,8.30
2018-11-14T13:07:15.704Z,9.30
2018-11-14T13:09:44.790Z,8.77
2018-11-14T13:12:20.652Z,8.97
2018-11-14T13:14:50.247Z,8.63
2018-11-14T13:17:19.558Z,8.27
2018-11-14T13:19:49.281Z,8.77
2018-11-14T13:22:19.099Z,8.70
2018-11-14T13:24:48.866Z,9.63
2018-11-14T13:27:18.427Z,8.83
2018-11-14T13:29:48.864Z,7.90
2018-11-14T13:32:18.569Z,8.33
2018-11-14T13:34:48.111Z,7.50
2018-11-14T13:37:18.205Z,7.87
2018-11-14T13:39:47.822Z,7.00
2018-11-14T13:42:17.531Z,7.90
2018-11-14T13:44:47.147Z,7.57
2018-11-14T13:47:17.166Z,7.43
2018-11-14T13:49:46.936Z,7.83
2018-11-14T13:52:16.903Z,7.10
2018-11-14T13:54:46.208Z,7.10
2018-11-14T13:57:15.925Z,6.63
2018-11-14T13:59:46.254Z,6.57
2018-11-14T14:02:16.074Z,6.80
2018-11-14T14:04:46.402Z,6.33
2018-11-14T14:07:16.053Z,6.70
2018-11-14T14:09:46.749Z,6.63
2018-11-14T14:12:16.198Z,8.40
2018-11-14T14:14:45.976Z,7.10
2018-11-14T14:17:15.551Z,7.00
2018-11-14T14:19:45.506Z,7.10
2018-11-14T14:22:14.936Z,6.93
2018-11-14T14:24:44.941Z,7.57
2018-11-14T14:27:15.164Z,6.70
2018-11-14T14:29:45.169Z,6.87
2018-11-14T14:32:14.487Z,8.00
2018-11-14T14:34:44.103Z,7.00
2018-11-14T14:37:13.508Z,7.17
2018-11-14T14:39:42.817Z,7.63
2018-11-14T14:42:12.424Z,7.63
2018-11-14T14:44:42.443Z,6.97
2018-11-14T14:47:11.851Z,8.00
2018-11-14T14:49:41.257Z,8.00
2018-11-14T14:52:11.177Z,7.50
2018-11-14T14:54:40.789Z,7.50
2018-11-14T14:57:10.325Z,8.60
2018-11-14T14:59:40.950Z,7.80
2018-11-14T15:02:10.753Z,8.87
2018-11-14T15:04:40.159Z,7.93
2018-11-14T15:07:09.668Z,8.03
2018-11-14T15:09:39.441Z,8.53
2018-11-14T15:12:08.998Z,8.40
2018-11-14T15:14:38.403Z,8.70
2018-11-14T15:17:08.226Z,8.53
2018-11-14T15:19:37.629Z,8.43
2018-11-14T15:22:08.067Z,8.87
2018-11-14T15:24:37.367Z,9.40
2018-11-14T15:27:07.108Z,9.50
2018-11-14T15:29:36.952Z,9.03
2018-11-14T15:32:06.919Z,10.47
2018-11-14T15:34:36.838Z,9.73
2018-11-14T15:37:06.757Z,10.63
2018-11-14T15:39:36.061Z,10.27
2018-11-14T15:42:07.206Z,11.07
2018-11-14T15:44:36.750Z,10.77
2018-11-14T15:47:06.735Z,11.57
2018-11-14T15:49:36.962Z,10.87
2018-11-14T15:52:07.496Z,10.63
2018-11-14T15:54:37.101Z,11.73
2018-11-14T15:57:06.309Z,12.70
2018-11-14T15:59:35.914Z,12.17
2018-11-14T16:02:06.752Z,11.60
2018-11-14T16:04:37.083Z,12.60
2018-11-14T16:07:07.208Z,12.57
2018-11-14T16:09:36.814Z,12.07
2018-11-14T16:12:07.141Z,11.57
2018-11-14T16:14:38.255Z,12.00
2018-11-14T16:17:08.254Z,11.53
2018-11-14T16:19:37.916Z,12.13
2018-11-14T16:22:07.630Z,12.07
2018-11-14T16:24:37.507Z,12.20
2018-11-14T16:27:07.633Z,12.40
2018-11-14T16:29:37.177Z,12.27
2018-11-14T16:32:06.996Z,12.53
2018-11-14T16:34:36.317Z,14.53
2018-11-14T16:37:06.321Z,13.40
2018-11-14T16:39:36.652Z,13.70
2018-11-14T16:42:06.852Z,13.63
2018-11-14T16:44:37.077Z,13.30
2018-11-14T16:47:07.117Z,13.23
2018-11-14T16:49:37.038Z,13.93
2018-11-14T16:52:07.063Z,13.30
2018-11-14T16:54:36.948Z,14.37
2018-11-14T16:57:06.592Z,13.73
2018-11-14T16:59:37.633Z,13.50
2018-11-14T17:02:07.147Z,13.23
2018-11-14T17:04:37.113Z,13.13
2018-11-14T17:07:06.963Z,13.00
2018-11-14T17:09:39.156Z,13.37
2018-11-14T17:12:09.479Z,13.30
2018-11-14T17:14:38.914Z,13.33
2018-11-14T17:17:08.495Z,12.07
2018-11-14T17:19:38.171Z,12.30
2018-11-14T17:22:08.041Z,12.57
2018-11-14T17:24:37.812Z,11.80
2018-11-14T17:27:07.660Z,12.20
2018-11-14T17:29:37.230Z,12.73
2018-11-14T17:32:06.989Z,13.20
2018-11-14T17:34:36.889Z,13.87
2018-11-14T17:37:07.638Z,13.77
2018-11-14T17:39:37.019Z,12.57
2018-11-14T17:42:07.236Z,12.47
2018-11-14T17:44:37.094Z,12.57
2018-11-14T17:47:07.158Z,12.77
2018-11-14T17:49:36.776Z,12.43
2018-11-14T17:52:06.625Z,12.80
2018-11-14T17:54:36.575Z,13.10
2018-11-14T17:57:06.900Z,13.47
2018-11-14T17:59:36.612Z,13.57
2018-11-14T18:02:07.045Z,13.40
2018-11-14T18:04:37.375Z,13.87
2018-11-14T18:07:07.362Z,14.73
2018-11-14T18:09:37.214Z,14.40
2018-11-14T18:12:07.235Z,13.57
2018-11-14T18:14:36.998Z,12.90
2018-11-14T18:17:06.455Z,15.43
2018-11-14T18:19:36.477Z,14.67
2018-11-14T18:22:06.566Z,14.47
2018-11-14T18:24:35.240Z,14.83
2018-11-14T18:27:06.721Z,14.43
2018-11-14T18:29:36.670Z,14.00
2018-11-14T18:32:07.266Z,14.77
2018-11-14T18:34:37.018Z,13.90
2018-11-14T18:37:07.045Z,13.90
2018-11-14T18:39:38.909Z,14.63
2018-11-14T18:42:08.931Z,12.73
2018-11-14T18:44:39.157Z,14.03
2018-11-14T18:47:09.267Z,13.80
2018-11-14T18:49:38.694Z,13.73
2018-11-14T18:52:08.593Z,12.70
2018-11-14T18:54:38.217Z,12.37
2018-11-14T18:57:07.709Z,14.23
2018-11-14T18:59:37.973Z,13.77
2018-11-14T19:02:08.488Z,13.00
2018-11-14T19:04:38.269Z,13.33
2018-11-14T19:07:07.919Z,13.13
2018-11-14T19:09:38.043Z,13.27
2018-11-14T19:12:08.003Z,13.77
2018-11-14T19:14:37.733Z,14.13
2018-11-14T19:17:13.331Z,13.07
2018-11-14T19:19:43.964Z,13.90
2018-11-14T19:22:13.356Z,12.97
2018-11-14T19:24:43.249Z,14.40
2018-11-14T19:27:13.103Z,13.90
2018-11-14T19:29:43.239Z,13.07
2018-11-14T19:32:13.216Z,13.20
2018-11-14T19:34:42.859Z,13.67
2018-11-14T19:37:13.597Z,14.60
2018-11-14T19:39:43.198Z,15.60
2018-11-14T19:42:12.861Z,14.80
2018-11-14T19:44:42.842Z,15.13
2018-11-14T19:47:12.757Z,16.00
2018-11-14T19:49:42.592Z,15.47
2018-11-14T19:52:12.803Z,15.60
2018-11-14T19:54:42.512Z,15.17
2018-11-14T19:57:12.542Z,15.77
2018-11-14T19:59:42.453Z,14.90
2018-11-14T20:02:13.719Z,14.93
2018-11-14T20:04:44.543Z,15.43
2018-11-14T20:07:14.927Z,14.57
2018-11-14T20:09:45.101Z,14.00
2018-11-14T20:12:15.227Z,14.83
2018-11-14T20:14:46.175Z,13.77
2018-11-14T20:17:17.485Z,13.40
2018-11-14T20:19:47.744Z,13.93
2018-11-14T20:22:17.966Z,14.57
2018-11-14T20:24:47.988Z,13.10
2018-11-14T20:27:17.804Z,12.83
2018-11-14T20:29:47.822Z,13.27
2018-11-14T20:32:17.750Z,12.90
2018-11-14T20:34:47.558Z,11.97
2018-11-14T20:37:17.099Z,13.53
2018-11-14T20:39:47.092Z,13.43
2018-11-14T20:42:17.415Z,12.77
2018-11-14T20:44:47.439Z,12.77
2018-11-14T20:47:17.358Z,13.17
2018-11-14T20:49:48.092Z,13.80
2018-11-14T20:52:17.840Z,14.57
2018-11-14T20:54:47.637Z,15.27
2018-11-14T20:57:17.039Z,15.20
2018-11-14T20:59:46.738Z,15.73
2018-11-14T21:02:16.783Z,16.70
2018-11-14T21:04:46.279Z,17.60
2018-11-14T21:07:15.770Z,17.97
2018-11-14T21:09:45.579Z,19.37
2018-11-14T21:12:15.100Z,18.63
2018-11-14T21:14:44.815Z,18.53
2018-11-14T21:17:15.127Z,19.70
2018-11-14T21:19:44.756Z,18.10
2018-11-14T21:22:15.079Z,17.70
2018-11-14T21:24:44.335Z,18.20
2018-11-14T21:27:14.510Z,17.50
2018-11-14T21:29:44.251Z,17.67
2018-11-14T21:32:14.445Z,17.17
2018-11-14T21:34:44.262Z,17.00
2018-11-14T21:37:13.824Z,16.50
2018-11-14T21:39:43.694Z,17.97
2018-11-14T21:42:13.186Z,18.00
2018-11-14T21:44:42.709Z,17.90
2018-11-14T21:47:12.289Z,17.73
2018-11-14T21:49:41.730Z,17.90
2018-11-14T21:52:12.196Z,18.53
2018-11-14T21:54:42.036Z,18.77
2018-11-14T21:57:11.732Z,18.90
2018-11-14T21:59:40.995Z,17.93
2018-11-14T22:02:10.556Z,17.70
2018-11-14T22:04:40.039Z,17.83
2018-11-14T22:07:09.214Z,17.37
2018-11-14T22:09:40.465Z,16.07
2018-11-14T22:12:09.975Z,16.07
2018-11-14T22:14:39.485Z,16.07
2018-11-14T22:17:09.507Z,16.70
2018-11-14T22:19:38.863Z,16.40
2018-11-14T22:22:08.523Z,16.20
2018-11-14T22:24:38.245Z,15.60
2018-11-14T22:27:07.770Z,16.73
2018-11-14T22:29:37.461Z,16.10
2018-11-14T22:32:07.276Z,16.27
2018-11-14T22:34:37.229Z,16.17
2018-11-14T22:37:08.134Z,16.50
2018-11-14T22:39:39.634Z,16.07
2018-11-14T22:42:09.822Z,16.90
2018-11-14T22:44:39.321Z,17.10
2018-11-14T22:47:08.725Z,16.30
2018-11-14T22:49:38.213Z,16.23
2018-11-14T22:52:07.972Z,15.73
2018-11-14T22:54:37.360Z,15.20
2018-11-14T22:57:07.316Z,14.80
2018-11-14T22:59:36.583Z,15.33
2018-11-14T23:02:07.114Z,16.17
2018-11-14T23:04:36.724Z,16.83
2018-11-14T23:07:07.155Z,16.40
2018-11-14T23:09:37.010Z,17.43
2018-11-14T23:12:06.790Z,18.47
2018-11-14T23:14:36.402Z,17.60
2018-11-14T23:17:06.624Z,17.50
2018-11-14T23:19:35.931Z,16.93
2018-11-14T23:22:06.459Z,17.90
2018-11-14T23:24:35.924Z,18.30
2018-11-14T23:27:06.499Z,19.07
2018-11-14T23:29:36.265Z,18.23
2018-11-14T23:32:05.755Z,19.33
2018-11-14T23:34:35.226Z,19.37
2018-11-14T23:37:06.480Z,20.33
2018-11-14T23:39:35.836Z,19.47
2018-11-14T23:42:06.930Z,21.27
2018-11-14T23:44:36.534Z,21.23
2018-11-14T23:47:06.660Z,19.63
2018-11-14T23:49:36.231Z,20.03
2018-11-14T23:52:06.392Z,19.97
2018-11-14T23:54:36.207Z,21.27
2018-11-14T23:57:06.533Z,20.40
2018-11-14T23:59:36.454Z,20.60
